Pearl Harbor, Hawaii
Current Conditions -  °F | °C
As of 8:53 AM on Friday 21 Nov 2014 (Local Time) from PHNL Reporting Station
Few Clouds Few Clouds  
Wind Chill: 81°   Ceiling: Unl
Heat Index: 84°   Visibility: 10mi
Dew Point: 68°   Wind: 13mph
Humidity: 65%   Direction: 70°ENE
Pressure: 30.07"   Gusts: NA
Location:  21.31°N, 157.86°W
Report Text: PHNL 211853Z 07011KT 10SM FEW043 27/20 A3007 RMK AO2 SLP183 T02720200
Loading
Personal Weather Stations






























Interactive Weather Map New forecast layout! Learn more

10-Day Weather Forecast

Advertisements
Track Severe Weather on mobile